Time,TemperatureF,DewpointF,PressureIn,WindDirection,WindDirectionDegrees,WindSpeedMPH,WindSpeedGustMPH,Humidity,HourlyPrecipIn,Conditions,Clouds,dailyrainin,SoftwareType,DateUTC
2013-05-12 00:01:00,31.8,24.5,28.32,WNW,299,4.0,4.0,74,0.00,RA,OVC,0.00,WeatherDisplay:10.37,2013-05-12 04:01:00,
2013-05-12 00:06:00,32.0,25.3,28.32,NW,306,4.9,4.9,76,0.00,RA,OVC,0.00,WeatherDisplay:10.37,2013-05-12 04:06:00,
2013-05-12 00:11:00,31.8,25.1,28.32,NW,315,4.0,6.3,76,0.00,CLR,OVC,0.00,WeatherDisplay:10.37,2013-05-12 04:11:00,
2013-05-12 00:16:00,31.8,25.1,28.32,NW,313,5.4,5.8,76,0.00,CLR,OVC,0.00,WeatherDisplay:10.37,2013-05-12 04:16:00,
2013-05-12 00:21:00,31.8,25.4,28.32,NW,311,4.5,5.8,77,0.00,CLR,OVC,0.00,WeatherDisplay:10.37,2013-05-12 04:21:00,
2013-05-12 00:26:00,31.8,25.4,28.32,WNW,295,4.0,5.8,77,0.00,CLR,OVC,0.00,WeatherDisplay:10.37,2013-05-12 04:26:00,
2013-05-12 00:31:00,31.8,25.4,28.32,NW,319,5.4,10.4,77,0.00,CLR,OVC,0.00,WeatherDisplay:10.37,2013-05-12 04:31:00,
2013-05-12 00:36:00,31.8,25.4,28.32,NW,324,3.1,3.5,77,0.00,CLR,OVC,0.00,WeatherDisplay:10.37,2013-05-12 04:36:00,
2013-05-12 00:41:00,31.6,25.3,28.32,NW,320,5.8,9.2,77,0.00,CLR,OVC,0.00,WeatherDisplay:10.37,2013-05-12 04:41:00,
2013-05-12 00:46:00,31.5,24.8,28.32,NNW,338,4.5,8.1,76,0.00,CLR,OVC,0.00,WeatherDisplay:10.37,2013-05-12 04:46:00,
2013-05-12 00:51:00,31.5,24.4,28.32,NNW,337,3.1,5.8,75,0.00,CLR,OVC,0.00,WeatherDisplay:10.37,2013-05-12 04:51:00,
2013-05-12 00:56:00,31.5,24.4,28.32,NW,318,3.6,5.8,75,0.00,CLR,OVC,0.00,WeatherDisplay:10.37,2013-05-12 04:56:00,
2013-05-12 01:01:00,31.5,24.1,28.32,NW,318,3.6,5.8,74,0.00,CLR,OVC,0.00,WeatherDisplay:10.37,2013-05-12 05:01:00,
2013-05-12 01:06:00,31.6,24.6,28.32,WNW,303,3.6,5.8,75,0.00,CLR,OVC,0.00,WeatherDisplay:10.37,2013-05-12 05:06:00,
2013-05-12 01:11:00,31.6,24.6,28.32,WNW,299,3.6,4.6,75,0.00,CLR,OVC,0.00,WeatherDisplay:10.37,2013-05-12 05:11:00,
2013-05-12 01:16:00,31.6,24.6,28.32,NW,326,3.1,5.8,75,0.00,CLR,OVC,0.00,WeatherDisplay:10.37,2013-05-12 05:16:00,
2013-05-12 01:21:00,31.6,24.6,28.32,NW,309,3.6,5.8,75,0.00,CLR,OVC,0.00,WeatherDisplay:10.37,2013-05-12 05:21:00,
2013-05-12 01:26:00,31.6,24.6,28.32,NW,321,4.5,5.8,75,0.00,CLR,OVC,0.00,WeatherDisplay:10.37,2013-05-12 05:26:00,
2013-05-12 01:31:00,31.6,24.9,28.32,NNW,340,3.6,5.8,76,0.00,CLR,OVC,0.00,WeatherDisplay:10.37,2013-05-12 05:31:00,
2013-05-12 01:36:00,31.6,24.9,28.32,NNW,332,2.7,3.6,76,0.00,CLR,OVC,0.00,WeatherDisplay:10.37,2013-05-12 05:36:00,
2013-05-12 01:41:00,31.6,24.9,28.32,NW,326,4.5,5.8,76,0.00,CLR,OVC,0.00,WeatherDisplay:10.37,2013-05-12 05:41:00,
2013-05-12 01:46:00,31.6,24.9,28.32,NW,325,4.5,9.2,76,0.00,CLR,OVC,0.00,WeatherDisplay:10.37,2013-05-12 05:46:00,
2013-05-12 01:51:00,31.6,24.9,28.35,NW,326,4.0,5.8,76,0.00,CLR,OVC,0.00,WeatherDisplay:10.37,2013-05-12 05:51:00,
2013-05-12 01:56:00,31.6,24.9,28.35,WNW,287,6.3,9.2,76,0.00,CLR,OVC,0.00,WeatherDisplay:10.37,2013-05-12 05:56:00,
2013-05-12 02:01:00,31.6,24.9,28.35,West,273,3.1,5.8,76,0.00,CLR,OVC,0.00,WeatherDisplay:10.37,2013-05-12 06:01:00,
2013-05-12 02:06:00,31.6,24.9,28.35,West,262,4.0,5.8,76,0.00,CLR,OVC,0.00,WeatherDisplay:10.37,2013-05-12 06:06:00,
2013-05-12 02:11:00,31.6,25.3,28.35,WNW,303,3.6,5.8,77,0.00,CLR,OVC,0.00,WeatherDisplay:10.37,2013-05-12 06:11:00,
2013-05-12 02:16:00,31.6,25.3,28.35,NW,306,6.7,9.2,77,0.00,CLR,OVC,0.00,WeatherDisplay:10.37,2013-05-12 06:16:00,
2013-05-12 02:21:00,31.6,25.3,28.35,North,353,4.9,8.1,77,0.00,CLR,OVC,0.00,WeatherDisplay:10.37,2013-05-12 06:21:00,
2013-05-12 02:26:00,31.5,25.1,28.35,NW,311,3.6,8.1,77,0.00,CLR,OVC,0.00,WeatherDisplay:10.37,2013-05-12 06:26:00,
2013-05-12 02:31:00,31.5,25.1,28.35,NNW,331,4.9,8.1,77,0.00,CLR,OVC,0.00,WeatherDisplay:10.37,2013-05-12 06:31:00,
2013-05-12 02:36:00,31.3,24.6,28.35,NW,307,4.5,5.8,76,0.00,CLR,OVC,0.00,WeatherDisplay:10.37,2013-05-12 06:36:00,
2013-05-12 02:41:00,31.3,24.6,28.35,WSW,237,3.1,3.5,76,0.00,CLR,OVC,0.00,WeatherDisplay:10.37,2013-05-12 06:41:00,
2013-05-12 02:46:00,31.3,24.6,28.35,NNW,327,3.1,5.8,76,0.00,CLR,OVC,0.00,WeatherDisplay:10.37,2013-05-12 06:46:00,
2013-05-12 02:51:00,31.3,24.6,28.35,NW,316,3.6,5.8,76,0.00,CLR,OVC,0.00,WeatherDisplay:10.37,2013-05-12 06:51:00,
2013-05-12 02:56:00,31.3,24.9,28.35,NNW,337,4.5,6.9,77,0.00,CLR,OVC,0.00,WeatherDisplay:10.37,2013-05-12 06:56:00,
2013-05-12 03:01:00,31.3,24.6,28.35,NW,320,4.5,5.8,76,0.00,CLR,OVC,0.00,WeatherDisplay:10.37,2013-05-12 07:01:00,
2013-05-12 03:06:00,31.3,24.6,28.35,NNW,343,3.6,5.8,76,0.00,CLR,OVC,0.00,WeatherDisplay:10.37,2013-05-12 07:06:00,
2013-05-12 03:11:00,31.3,24.6,28.35,North,357,4.5,5.8,76,0.00,CLR,OVC,0.00,WeatherDisplay:10.37,2013-05-12 07:11:00,
2013-05-12 03:16:00,31.1,24.4,28.35,NNW,340,4.0,4.0,76,0.00,CLR,OVC,0.00,WeatherDisplay:10.37,2013-05-12 07:16:00,
2013-05-12 03:21:00,31.1,24.4,28.35,NW,324,2.7,5.8,76,0.00,CLR,OVC,0.00,WeatherDisplay:10.37,2013-05-12 07:21:00,
2013-05-12 03:26:00,31.1,24.4,28.35,West,264,2.7,3.5,76,0.00,CLR,OVC,0.00,WeatherDisplay:10.37,2013-05-12 07:26:00,
2013-05-12 03:31:00,30.9,23.9,28.35,NW,316,3.6,5.8,75,0.00,CLR,OVC,0.00,WeatherDisplay:10.37,2013-05-12 07:31:00,
2013-05-12 03:36:00,30.7,23.8,28.35,West,266,4.5,5.8,75,0.00,CLR,OVC,0.00,WeatherDisplay:10.37,2013-05-12 07:36:00,
2013-05-12 03:41:00,30.7,23.8,28.35,North,0,2.7,4.0,75,0.00,CLR,OVC,0.00,WeatherDisplay:10.37,2013-05-12 07:41:00,
2013-05-12 03:46:00,30.6,23.3,28.35,North,357,5.4,8.1,74,0.00,CLR,OVC,0.00,WeatherDisplay:10.37,2013-05-12 07:46:00,
2013-05-12 03:51:00,30.6,23.3,28.35,NW,313,3.6,4.6,74,0.00,CLR,OVC,0.00,WeatherDisplay:10.37,2013-05-12 07:51:00,
2013-05-12 03:56:00,30.4,23.1,28.35,NNW,341,4.0,5.8,74,0.00,CLR,OVC,0.00,WeatherDisplay:10.37,2013-05-12 07:56:00,
2013-05-12 04:01:00,30.4,23.1,28.35,NNW,332,4.0,5.8,74,0.00,CLR,OVC,0.00,WeatherDisplay:10.37,2013-05-12 08:01:00,
2013-05-12 04:06:00,30.2,22.9,28.38,NW,320,2.2,5.8,74,0.00,CLR,OVC,0.00,WeatherDisplay:10.37,2013-05-12 08:06:00,
2013-05-12 04:11:00,30.2,22.9,28.38,NW,318,5.4,8.1,74,0.00,CLR,OVC,0.00,WeatherDisplay:10.37,2013-05-12 08:11:00,
2013-05-12 04:16:00,30.2,22.6,28.38,WNW,291,4.9,10.4,73,0.00,CLR,OVC,0.00,WeatherDisplay:10.37,2013-05-12 08:16:00,
2013-05-12 04:21:00,30.2,22.6,28.38,NW,320,5.8,10.4,73,0.00,CLR,OVC,0.00,WeatherDisplay:10.37,2013-05-12 08:21:00,
2013-05-12 04:26:00,30.2,22.6,28.38,NNW,327,5.4,5.8,73,0.00,CLR,OVC,0.00,WeatherDisplay:10.37,2013-05-12 08:26:00,
2013-05-12 04:31:00,30.2,22.6,28.38,NNW,342,3.1,5.8,73,0.00,CLR,OVC,0.00,WeatherDisplay:10.37,2013-05-12 08:31:00,
2013-05-12 04:36:00,30.0,22.4,28.38,North,6,2.7,5.8,73,0.00,CLR,OVC,0.00,WeatherDisplay:10.37,2013-05-12 08:36:00,
2013-05-12 04:41:00,29.8,21.6,28.38,NW,312,4.9,5.8,71,0.00,CLR,OVC,0.00,WeatherDisplay:10.37,2013-05-12 08:41:00,
2013-05-12 04:46:00,29.8,21.6,28.38,NW,305,3.6,5.8,71,0.00,CLR,OVC,0.00,WeatherDisplay:10.37,2013-05-12 08:46:00,
2013-05-12 04:51:00,29.8,21.9,28.38,NNW,327,3.6,9.2,72,0.00,CLR,OVC,0.00,WeatherDisplay:10.37,2013-05-12 08:51:00,
2013-05-12 04:56:00,29.7,21.4,28.38,NW,320,4.0,5.8,71,0.00,CLR,OVC,0.00,WeatherDisplay:10.37,2013-05-12 08:56:00,
2013-05-12 05:01:00,29.5,20.9,28.38,NW,322,4.0,4.6,70,0.00,CLR,OVC,0.00,WeatherDisplay:10.37,2013-05-12 09:01:00,
2013-05-12 05:06:00,29.5,21.2,28.38,NW,321,2.2,3.5,71,0.00,CLR,OVC,0.00,WeatherDisplay:10.37,2013-05-12 09:06:00,
2013-05-12 05:11:00,29.5,21.6,28.38,NNW,331,4.9,9.2,72,0.00,CLR,OVC,0.00,WeatherDisplay:10.37,2013-05-12 09:11:00,
2013-05-12 05:16:00,29.3,21.4,28.38,NNW,327,6.7,8.1,72,0.00,CLR,OVC,0.00,WeatherDisplay:10.37,2013-05-12 09:16:00,
2013-05-12 05:21:00,29.3,21.4,28.38,NW,313,5.4,12.7,72,0.00,CLR,OVC,0.00,WeatherDisplay:10.37,2013-05-12 09:21:00,
2013-05-12 05:26:00,29.1,20.2,28.38,WNW,294,4.0,5.8,69,0.00,CLR,OVC,0.00,WeatherDisplay:10.37,2013-05-12 09:26:00,
2013-05-12 05:31:00,28.9,19.7,28.38,NNW,345,4.9,5.8,68,0.00,CLR,OVC,0.00,WeatherDisplay:10.37,2013-05-12 09:31:00,
2013-05-12 05:36:00,28.8,18.8,28.38,WNW,300,6.7,8.1,66,0.00,CLR,OVC,0.00,WeatherDisplay:10.37,2013-05-12 09:36:00,
2013-05-12 05:41:00,28.8,18.5,28.38,NW,322,2.7,6.3,65,0.00,CLR,OVC,0.00,WeatherDisplay:10.37,2013-05-12 09:41:00,
2013-05-12 05:46:00,28.8,18.5,28.38,NW,314,4.0,4.6,65,0.00,CLR,OVC,0.00,WeatherDisplay:10.37,2013-05-12 09:46:00,
2013-05-12 05:51:00,28.6,17.6,28.38,NNW,329,5.4,8.1,63,0.00,CLR,OVC,0.00,WeatherDisplay:10.37,2013-05-12 09:51:00,
2013-05-12 05:56:00,28.6,16.8,28.38,WNW,288,4.9,4.9,61,0.00,CLR,OVC,0.00,WeatherDisplay:10.37,2013-05-12 09:56:00,
2013-05-12 06:01:00,28.6,16.8,28.38,North,357,2.7,3.5,61,0.00,CLR,OVC,0.00,WeatherDisplay:10.37,2013-05-12 10:01:00,
2013-05-12 06:06:00,28.4,15.9,28.38,NNW,334,4.0,5.8,59,0.00,CLR,OVC,0.00,WeatherDisplay:10.37,2013-05-12 10:06:00,
2013-05-12 06:11:00,28.2,15.3,28.38,NNW,331,4.5,8.1,58,0.00,CLR,OVC,0.00,WeatherDisplay:10.37,2013-05-12 10:11:00,
2013-05-12 06:16:00,28.0,13.9,28.38,NW,320,4.5,6.9,55,0.00,CLR,OVC,0.00,WeatherDisplay:10.37,2013-05-12 10:16:00,
2013-05-12 06:21:00,27.7,12.3,28.38,NW,308,6.7,12.7,52,0.00,CLR,OVC,0.00,WeatherDisplay:10.37,2013-05-12 10:21:00,
2013-05-12 06:26:00,27.7,12.3,28.38,NNW,342,4.5,4.6,52,0.00,CLR,OVC,0.00,WeatherDisplay:10.37,2013-05-12 10:26:00,
2013-05-12 06:31:00,27.7,12.3,28.38,WNW,284,3.1,5.8,52,0.00,CLR,OVC,0.00,WeatherDisplay:10.37,2013-05-12 10:31:00,
2013-05-12 06:36:00,27.7,12.3,28.41,NNW,334,7.6,17.3,52,0.00,CLR,OVC,0.00,WeatherDisplay:10.37,2013-05-12 10:36:00,
2013-05-12 06:41:00,27.7,12.8,28.41,NW,326,4.9,8.1,53,0.00,CLR,OVC,0.00,WeatherDisplay:10.37,2013-05-12 10:41:00,
2013-05-12 06:46:00,27.7,12.3,28.41,WNW,300,5.4,8.1,52,0.00,CLR,OVC,0.00,WeatherDisplay:10.37,2013-05-12 10:46:00,
2013-05-12 06:51:00,27.7,12.3,28.41,NW,321,4.9,8.1,52,0.00,CLR,OVC,0.00,WeatherDisplay:10.37,2013-05-12 10:51:00,
2013-05-12 06:56:00,27.7,11.9,28.41,WSW,243,4.5,5.8,51,0.00,CLR,OVC,0.00,WeatherDisplay:10.37,2013-05-12 10:56:00,
2013-05-12 07:01:00,27.5,12.2,28.41,NNW,334,4.9,12.7,52,0.00,CLR,OVC,0.00,WeatherDisplay:10.37,2013-05-12 11:01:00,
2013-05-12 07:06:00,27.5,12.2,28.41,NW,309,2.7,3.5,52,0.00,CLR,OVC,0.00,WeatherDisplay:10.37,2013-05-12 11:06:00,
2013-05-12 07:11:00,27.5,12.2,28.41,NNW,331,4.5,5.8,52,0.00,CLR,OVC,0.00,WeatherDisplay:10.37,2013-05-12 11:11:00,
2013-05-12 07:16:00,27.7,12.3,28.41,NW,322,3.6,5.8,52,0.00,CLR,OVC,0.00,WeatherDisplay:10.37,2013-05-12 11:16:00,
2013-05-12 07:21:00,27.7,12.3,28.41,NNW,328,2.7,3.5,52,0.00,CLR,OVC,0.00,WeatherDisplay:10.37,2013-05-12 11:21:00,
2013-05-12 07:26:00,27.7,12.3,28.41,NW,324,3.6,6.3,52,0.00,CLR,OVC,0.00,WeatherDisplay:10.37,2013-05-12 11:26:00,
2013-05-12 07:31:00,27.7,11.9,28.41,North,353,4.0,5.8,51,0.00,CLR,OVC,0.00,WeatherDisplay:10.37,2013-05-12 11:31:00,
2013-05-12 07:36:00,27.9,12.5,28.41,NNW,328,4.0,8.1,52,0.00,CLR,OVC,0.00,WeatherDisplay:10.37,2013-05-12 11:36:00,
2013-05-12 07:41:00,27.9,12.5,28.41,North,0,4.9,10.4,52,0.00,CLR,OVC,0.00,WeatherDisplay:10.37,2013-05-12 11:41:00,
2013-05-12 07:46:00,27.9,11.1,28.41,West,281,7.2,9.2,49,0.00,CLR,OVC,0.00,WeatherDisplay:10.37,2013-05-12 11:46:00,
2013-05-12 07:51:00,27.9,11.6,28.41,NNW,341,4.0,5.8,50,0.00,CLR,OVC,0.00,WeatherDisplay:10.37,2013-05-12 11:51:00,
2013-05-12 07:56:00,27.9,11.1,28.41,NNW,327,5.4,10.4,49,0.00,CLR,OVC,0.00,WeatherDisplay:10.37,2013-05-12 11:56:00,
2013-05-12 08:01:00,27.9,12.1,28.41,West,271,4.0,5.8,51,0.00,CLR,OVC,0.00,WeatherDisplay:10.37,2013-05-12 12:01:00,
2013-05-12 08:06:00,28.0,12.2,28.41,WNW,292,0.0,3.5,51,0.00,CLR,OVC,0.00,WeatherDisplay:10.37,2013-05-12 12:06:00,
2013-05-12 08:11:00,28.0,12.2,28.41,WNW,300,6.7,8.1,51,0.00,CLR,OVC,0.00,WeatherDisplay:10.37,2013-05-12 12:11:00,
2013-05-12 08:16:00,28.2,12.8,28.41,NW,311,4.5,5.8,52,0.00,CLR,OVC,0.00,WeatherDisplay:10.37,2013-05-12 12:16:00,
2013-05-12 08:21:00,28.4,12.6,28.41,NNW,343,4.9,8.1,51,0.00,CLR,OVC,0.00,WeatherDisplay:10.37,2013-05-12 12:21:00,
2013-05-12 08:26:00,28.4,11.6,28.41,NNW,339,5.4,11.5,49,0.00,CLR,OVC,0.00,WeatherDisplay:10.37,2013-05-12 12:26:00,
2013-05-12 08:31:00,28.4,10.2,28.41,North,353,7.2,10.4,46,0.00,CLR,OVC,0.00,WeatherDisplay:10.37,2013-05-12 12:31:00,
2013-05-12 08:36:00,28.4,10.2,28.41,NW,316,6.3,8.1,46,0.00,CLR,OVC,0.00,WeatherDisplay:10.37,2013-05-12 12:36:00,
2013-05-12 08:41:00,28.4,10.2,28.41,NNE,31,5.8,8.1,46,0.00,CLR,OVC,0.00,WeatherDisplay:10.37,2013-05-12 12:41:00,
2013-05-12 08:46:00,28.4,11.2,28.41,NW,304,4.0,8.1,48,0.00,CLR,OVC,0.00,WeatherDisplay:10.37,2013-05-12 12:46:00,
2013-05-12 08:51:00,28.4,11.2,28.41,NW,324,4.0,10.4,48,0.00,CLR,OVC,0.00,WeatherDisplay:10.37,2013-05-12 12:51:00,
2013-05-12 08:56:00,28.4,11.6,28.41,North,353,5.4,8.1,49,0.00,CLR,OVC,0.00,WeatherDisplay:10.37,2013-05-12 12:56:00,
2013-05-12 09:01:00,28.4,11.2,28.41,NW,313,4.5,5.8,48,0.00,CLR,OVC,0.00,WeatherDisplay:10.37,2013-05-12 13:01:00,
2013-05-12 09:06:00,28.4,10.7,28.41,NW,317,3.6,5.8,47,0.00,CLR,OVC,0.00,WeatherDisplay:10.37,2013-05-12 13:06:00,
2013-05-12 09:11:00,28.4,10.7,28.41,NNW,327,7.2,8.1,47,0.00,CLR,OVC,0.00,WeatherDisplay:10.37,2013-05-12 13:11:00,
2013-05-12 09:16:00,28.6,9.9,28.41,North,0,8.3,13.8,45,0.00,CLR,OVC,0.00,WeatherDisplay:10.37,2013-05-12 13:16:00,
2013-05-12 09:21:00,28.6,9.9,28.44,NW,314,6.3,8.1,45,0.00,CLR,OVC,0.00,WeatherDisplay:10.37,2013-05-12 13:21:00,
2013-05-12 09:26:00,28.6,9.4,28.44,WSW,257,6.3,9.2,44,0.00,CLR,OVC,0.00,WeatherDisplay:10.37,2013-05-12 13:26:00,
2013-05-12 09:31:00,28.8,9.0,28.44,NW,320,7.6,12.7,43,0.00,CLR,OVC,0.00,WeatherDisplay:10.37,2013-05-12 13:31:00,
2013-05-12 09:36:00,28.9,9.7,28.44,WNW,298,4.5,5.8,44,0.00,CLR,OVC,0.00,WeatherDisplay:10.37,2013-05-12 13:36:00,
2013-05-12 09:41:00,28.9,9.2,28.44,NW,322,5.8,6.9,43,0.00,CLR,OVC,0.00,WeatherDisplay:10.37,2013-05-12 13:41:00,
2013-05-12 09:46:00,29.1,9.9,28.44,NW,321,4.9,5.8,44,0.00,CLR,OVC,0.00,WeatherDisplay:10.37,2013-05-12 13:46:00,
2013-05-12 09:51:00,29.3,9.0,28.44,North,353,4.9,9.2,42,0.00,CLR,OVC,0.00,WeatherDisplay:10.37,2013-05-12 13:51:00,
2013-05-12 09:56:00,29.5,9.2,28.44,NNW,340,4.9,8.1,42,0.00,CLR,OVC,0.00,WeatherDisplay:10.37,2013-05-12 13:56:00,
2013-05-12 10:01:00,30.2,9.3,28.44,NW,314,7.2,9.2,41,0.00,CLR,OVC,0.00,WeatherDisplay:10.37,2013-05-12 14:01:00,
2013-05-12 10:06:00,30.2,9.3,28.44,NW,305,4.5,5.8,41,0.00,CLR,OVC,0.00,WeatherDisplay:10.37,2013-05-12 14:06:00,
2013-05-12 10:11:00,30.7,9.2,28.44,North,350,4.9,4.9,40,0.00,CLR,OVC,0.00,WeatherDisplay:10.37,2013-05-12 14:11:00,
2013-05-12 10:16:00,30.4,8.9,28.44,North,357,6.7,10.4,40,0.00,CLR,OVC,0.00,WeatherDisplay:10.37,2013-05-12 14:16:00,
2013-05-12 10:21:00,30.4,8.9,28.44,NW,306,8.0,12.7,40,0.00,CLR,OVC,0.00,WeatherDisplay:10.37,2013-05-12 14:21:00,
2013-05-12 10:26:00,30.7,8.1,28.44,WNW,297,7.6,8.1,38,0.00,CLR,OVC,0.00,WeatherDisplay:10.37,2013-05-12 14:26:00,
2013-05-12 10:31:00,31.5,9.3,28.44,NW,316,5.4,6.9,39,0.00,CLR,OVC,0.00,WeatherDisplay:10.37,2013-05-12 14:31:00,
2013-05-12 10:36:00,32.0,8.6,28.44,NNW,331,8.3,12.7,37,0.00,CLR,OVC,0.00,WeatherDisplay:10.37,2013-05-12 14:36:00,
2013-05-12 10:41:00,31.8,7.9,28.44,WSW,253,6.3,8.1,36,0.00,CLR,OVC,0.00,WeatherDisplay:10.37,2013-05-12 14:41:00,
2013-05-12 10:46:00,31.6,7.7,28.44,NNW,327,8.0,10.4,36,0.00,CLR,OVC,0.00,WeatherDisplay:10.37,2013-05-12 14:46:00,
2013-05-12 10:51:00,31.1,8.4,28.44,WNW,297,4.0,11.5,38,0.00,CLR,OVC,0.00,WeatherDisplay:10.37,2013-05-12 14:51:00,
2013-05-12 10:56:00,31.1,7.8,28.44,WSW,245,3.6,8.1,37,0.00,CLR,OVC,0.00,WeatherDisplay:10.37,2013-05-12 14:56:00,
2013-05-12 11:01:00,31.6,8.3,28.44,NW,308,6.3,10.4,37,0.00,CLR,OVC,0.00,WeatherDisplay:10.37,2013-05-12 15:01:00,
2013-05-12 11:06:00,32.4,8.3,28.44,North,353,4.5,4.5,36,0.00,CLR,OVC,0.00,WeatherDisplay:10.37,2013-05-12 15:06:00,
2013-05-12 11:11:00,32.5,8.5,28.44,WNW,287,5.8,6.9,36,0.00,CLR,OVC,0.00,WeatherDisplay:10.37,2013-05-12 15:11:00,
2013-05-12 11:16:00,32.4,7.1,28.44,WNW,297,9.2,15.0,34,0.00,CLR,OVC,0.00,WeatherDisplay:10.37,2013-05-12 15:16:00,
2013-05-12 11:21:00,32.2,7.6,28.44,NNW,344,4.5,5.8,35,0.00,CLR,OVC,0.00,WeatherDisplay:10.37,2013-05-12 15:21:00,
2013-05-12 11:26:00,32.0,6.8,28.44,North,5,8.0,11.5,34,0.00,CLR,OVC,0.00,WeatherDisplay:10.37,2013-05-12 15:26:00,
2013-05-12 11:31:00,32.2,6.9,28.44,WNW,296,8.7,12.7,34,0.00,CLR,OVC,0.00,WeatherDisplay:10.37,2013-05-12 15:31:00,
2013-05-12 11:36:00,32.5,7.2,28.47,WNW,289,6.7,9.2,34,0.00,CLR,OVC,0.00,WeatherDisplay:10.37,2013-05-12 15:36:00,
2013-05-12 11:41:00,32.5,7.2,28.47,NW,322,7.6,9.2,34,0.00,CLR,OVC,0.00,WeatherDisplay:10.37,2013-05-12 15:41:00,
2013-05-12 11:46:00,32.7,7.4,28.47,WNW,299,4.5,10.4,34,0.00,CLR,OVC,0.00,WeatherDisplay:10.37,2013-05-12 15:46:00,
2013-05-12 11:51:00,32.5,6.6,28.47,NNW,333,6.7,10.4,33,0.00,CLR,OVC,0.00,WeatherDisplay:10.37,2013-05-12 15:51:00,
2013-05-12 11:56:00,32.7,6.7,28.47,NNW,327,9.6,11.5,33,0.00,CLR,OVC,0.00,WeatherDisplay:10.37,2013-05-12 15:56:00,
2013-05-12 12:01:00,33.4,7.4,28.47,WNW,282,5.4,6.9,33,0.00,CLR,OVC,0.00,WeatherDisplay:10.37,2013-05-12 16:01:00,
2013-05-12 12:06:00,33.6,6.8,28.47,NW,322,6.3,8.1,32,0.00,CLR,OVC,0.00,WeatherDisplay:10.37,2013-05-12 16:06:00,
2013-05-12 12:11:00,33.3,6.5,28.47,NW,304,8.0,10.4,32,0.00,CLR,OVC,0.00,WeatherDisplay:10.37,2013-05-12 16:11:00,
2013-05-12 12:16:00,33.3,7.2,28.47,NW,325,6.3,16.1,33,0.00,CLR,OVC,0.00,WeatherDisplay:10.37,2013-05-12 16:16:00,
2013-05-12 12:21:00,33.4,6.7,28.47,WSW,254,8.0,12.7,32,0.00,CLR,OVC,0.00,WeatherDisplay:10.37,2013-05-12 16:21:00,
2013-05-12 12:26:00,33.4,6.7,28.47,NW,321,7.6,8.1,32,0.00,CLR,OVC,0.00,WeatherDisplay:10.37,2013-05-12 16:26:00,
2013-05-12 12:31:00,34.0,7.2,28.47,WNW,284,4.9,8.1,32,0.00,CLR,OVC,0.00,WeatherDisplay:10.37,2013-05-12 16:31:00,
2013-05-12 12:36:00,34.2,6.6,28.47,WSW,240,4.5,8.1,31,0.00,CLR,OVC,0.00,WeatherDisplay:10.37,2013-05-12 16:36:00,
2013-05-12 12:41:00,34.0,6.5,28.47,NW,326,6.7,12.7,31,0.00,CLR,OVC,0.00,WeatherDisplay:10.37,2013-05-12 16:41:00,
2013-05-12 12:46:00,33.6,6.8,28.47,West,265,10.1,10.4,32,0.00,CLR,OVC,0.00,WeatherDisplay:10.37,2013-05-12 16:46:00,
2013-05-12 12:51:00,33.1,6.4,28.47,NW,304,5.8,15.0,32,0.00,CLR,OVC,0.00,WeatherDisplay:10.37,2013-05-12 16:51:00,
2013-05-12 12:56:00,33.1,6.4,28.47,SW,234,6.3,8.1,32,0.00,CLR,OVC,0.00,WeatherDisplay:10.37,2013-05-12 16:56:00,
2013-05-12 13:01:00,33.6,6.1,28.47,West,277,5.8,8.1,31,0.00,CLR,OVC,0.00,WeatherDisplay:10.37,2013-05-12 17:01:00,
2013-05-12 13:06:00,34.3,6.8,28.47,NW,304,8.3,11.5,31,0.00,CLR,OVC,0.00,WeatherDisplay:10.37,2013-05-12 17:06:00,
2013-05-12 13:11:00,35.8,7.3,28.47,West,275,7.2,8.1,30,0.00,CLR,OVC,0.00,WeatherDisplay:10.37,2013-05-12 17:11:00,
2013-05-12 13:16:00,35.1,6.7,28.47,SSW,213,6.3,10.4,30,0.00,CLR,OVC,0.00,WeatherDisplay:10.37,2013-05-12 17:16:00,
2013-05-12 13:21:00,34.5,6.9,28.47,NW,313,7.2,16.1,31,0.00,CLR,OVC,0.00,WeatherDisplay:10.37,2013-05-12 17:21:00,
2013-05-12 13:26:00,34.2,6.6,28.47,NW,325,8.3,11.5,31,0.00,CLR,OVC,0.00,WeatherDisplay:10.37,2013-05-12 17:26:00,
2013-05-12 13:31:00,33.6,6.1,28.47,West,261,4.0,8.1,31,0.00,CLR,OVC,0.00,WeatherDisplay:10.37,2013-05-12 17:31:00,
2013-05-12 13:36:00,33.6,6.1,28.47,NW,323,6.3,9.2,31,0.00,CLR,OVC,0.00,WeatherDisplay:10.37,2013-05-12 17:36:00,
2013-05-12 13:41:00,33.6,6.1,28.47,NNW,341,4.0,5.8,31,0.00,CLR,OVC,0.00,WeatherDisplay:10.37,2013-05-12 17:41:00,
2013-05-12 13:46:00,33.6,6.1,28.47,NNW,335,4.9,6.3,31,0.00,CLR,OVC,0.00,WeatherDisplay:10.37,2013-05-12 17:46:00,
2013-05-12 13:51:00,34.5,6.9,28.47,NW,308,6.7,10.9,31,0.00,CLR,OVC,0.00,WeatherDisplay:10.37,2013-05-12 17:51:00,
2013-05-12 13:56:00,34.5,6.9,28.47,NNW,346,8.3,12.7,31,0.00,CLR,OVC,0.00,WeatherDisplay:10.37,2013-05-12 17:56:00,
2013-05-12 14:01:00,33.8,6.3,28.47,NW,320,7.2,15.0,31,0.00,CLR,OVC,0.00,WeatherDisplay:10.37,2013-05-12 18:01:00,
2013-05-12 14:06:00,33.6,6.1,28.47,NNE,16,8.0,12.7,31,0.00,CLR,OVC,0.00,WeatherDisplay:10.37,2013-05-12 18:06:00,
2013-05-12 14:11:00,34.7,7.1,28.47,West,276,5.4,6.9,31,0.00,CLR,OVC,0.00,WeatherDisplay:10.37,2013-05-12 18:11:00,
2013-05-12 14:16:00,34.9,6.5,28.47,NNW,329,6.7,9.2,30,0.00,CLR,OVC,0.00,WeatherDisplay:10.37,2013-05-12 18:16:00,
2013-05-12 14:21:00,34.9,6.5,28.47,NW,321,6.3,9.2,30,0.00,CLR,OVC,0.00,WeatherDisplay:10.37,2013-05-12 18:21:00,
2013-05-12 14:26:00,34.7,6.4,28.47,West,279,7.6,9.2,30,0.00,CLR,OVC,0.00,WeatherDisplay:10.37,2013-05-12 18:26:00,
2013-05-12 14:31:00,34.9,6.5,28.47,North,353,8.0,10.4,30,0.00,CLR,OVC,0.00,WeatherDisplay:10.37,2013-05-12 18:31:00,
2013-05-12 14:36:00,35.4,7.0,28.47,NNW,327,4.9,10.4,30,0.00,CLR,OVC,0.00,WeatherDisplay:10.37,2013-05-12 18:36:00,
2013-05-12 14:41:00,34.9,6.5,28.47,NW,325,8.0,12.7,30,0.00,CLR,OVC,0.00,WeatherDisplay:10.37,2013-05-12 18:41:00,
2013-05-12 14:46:00,34.5,6.2,28.47,West,267,8.3,12.7,30,0.00,CLR,OVC,0.00,WeatherDisplay:10.37,2013-05-12 18:46:00,
2013-05-12 14:51:00,34.5,6.2,28.47,West,277,9.6,13.8,30,0.00,CLR,OVC,0.00,WeatherDisplay:10.37,2013-05-12 18:51:00,
2013-05-12 14:56:00,35.1,6.7,28.47,WNW,301,7.2,12.7,30,0.00,CLR,OVC,0.00,WeatherDisplay:10.37,2013-05-12 18:56:00,
2013-05-12 15:01:00,36.0,7.5,28.47,WNW,289,8.7,12.7,30,0.00,CLR,OVC,0.00,WeatherDisplay:10.37,2013-05-12 19:01:00,
2013-05-12 15:06:00,35.8,7.3,28.47,WNW,302,4.5,8.1,30,0.00,CLR,OVC,0.00,WeatherDisplay:10.37,2013-05-12 19:06:00,
2013-05-12 15:11:00,35.6,7.2,28.47,WNW,302,4.5,15.0,30,0.00,CLR,OVC,0.00,WeatherDisplay:10.37,2013-05-12 19:11:00,
2013-05-12 15:16:00,35.4,7.0,28.47,West,278,8.3,9.2,30,0.00,CLR,OVC,0.00,WeatherDisplay:10.37,2013-05-12 19:16:00,
2013-05-12 15:21:00,35.6,7.2,28.47,West,279,12.3,19.7,30,0.00,CLR,OVC,0.00,WeatherDisplay:10.37,2013-05-12 19:21:00,
2013-05-12 15:26:00,35.6,7.2,28.47,NNW,345,6.3,8.1,30,0.00,CLR,OVC,0.00,WeatherDisplay:10.37,2013-05-12 19:26:00,
2013-05-12 15:31:00,35.8,7.3,28.47,NW,308,7.6,10.4,30,0.00,CLR,OVC,0.00,WeatherDisplay:10.37,2013-05-12 19:31:00,
2013-05-12 15:36:00,35.2,6.8,28.47,West,267,5.8,8.1,30,0.00,CLR,OVC,0.00,WeatherDisplay:10.37,2013-05-12 19:36:00,
2013-05-12 15:41:00,35.8,7.3,28.47,WNW,292,5.8,9.2,30,0.00,CLR,OVC,0.00,WeatherDisplay:10.37,2013-05-12 19:41:00,
2013-05-12 15:46:00,36.5,7.2,28.47,NW,312,8.0,8.3,29,0.00,CLR,OVC,0.00,WeatherDisplay:10.37,2013-05-12 19:46:00,
2013-05-12 15:51:00,37.4,8.0,28.47,NNE,22,8.0,12.7,29,0.00,CLR,OVC,0.00,WeatherDisplay:10.37,2013-05-12 19:51:00,
2013-05-12 15:56:00,37.9,6.0,28.47,West,274,6.7,10.4,26,0.00,CLR,OVC,0.00,WeatherDisplay:10.37,2013-05-12 19:56:00,
2013-05-12 16:01:00,37.2,5.4,28.47,NNW,345,6.3,10.4,26,0.00,CLR,OVC,0.00,WeatherDisplay:10.37,2013-05-12 20:01:00,
2013-05-12 16:06:00,37.2,5.4,28.47,WNW,302,4.9,8.1,26,0.00,CLR,OVC,0.00,WeatherDisplay:10.37,2013-05-12 20:06:00,
2013-05-12 16:11:00,38.1,8.6,28.47,West,259,4.5,5.8,29,0.00,CLR,OVC,0.00,WeatherDisplay:10.37,2013-05-12 20:11:00,
2013-05-12 16:16:00,37.0,5.3,28.47,NNW,339,10.1,10.1,26,0.00,CLR,OVC,0.00,WeatherDisplay:10.37,2013-05-12 20:16:00,
2013-05-12 16:21:00,36.1,5.3,28.47,SW,222,4.5,15.0,27,0.00,CLR,OVC,0.00,WeatherDisplay:10.37,2013-05-12 20:21:00,
2013-05-12 16:26:00,36.3,5.5,28.47,NW,306,6.3,11.8,27,0.00,CLR,OVC,0.00,WeatherDisplay:10.37,2013-05-12 20:26:00,
2013-05-12 16:31:00,36.5,4.8,28.47,NNW,340,7.6,15.0,26,0.00,CLR,OVC,0.00,WeatherDisplay:10.37,2013-05-12 20:31:00,
2013-05-12 16:36:00,36.5,4.8,28.50,East,80,7.6,9.2,26,0.00,CLR,OVC,0.00,WeatherDisplay:10.37,2013-05-12 20:36:00,
2013-05-12 16:41:00,37.2,5.4,28.50,NW,308,6.3,8.3,26,0.00,CLR,OVC,0.00,WeatherDisplay:10.37,2013-05-12 20:41:00,
2013-05-12 16:46:00,37.8,5.9,28.50,West,264,4.5,5.8,26,0.00,CLR,OVC,0.00,WeatherDisplay:10.37,2013-05-12 20:46:00,
2013-05-12 16:51:00,38.1,4.4,28.50,WSW,254,4.0,8.1,24,0.00,CLR,OVC,0.00,WeatherDisplay:10.37,2013-05-12 20:51:00,
2013-05-12 16:56:00,37.6,4.0,28.50,NNW,339,8.0,10.4,24,0.00,CLR,OVC,0.00,WeatherDisplay:10.37,2013-05-12 20:56:00,
2013-05-12 17:01:00,37.2,3.7,28.50,NW,313,7.6,10.4,24,0.00,CLR,OVC,0.00,WeatherDisplay:10.37,2013-05-12 21:01:00,
2013-05-12 17:06:00,36.7,3.2,28.50,NW,309,7.6,12.7,24,0.00,CLR,OVC,0.00,WeatherDisplay:10.37,2013-05-12 21:06:00,
2013-05-12 17:11:00,36.9,3.4,28.50,North,0,6.3,10.4,24,0.00,CLR,OVC,0.00,WeatherDisplay:10.37,2013-05-12 21:11:00,
2013-05-12 17:16:00,38.1,4.4,28.50,North,0,5.8,8.1,24,0.00,CLR,OVC,0.00,WeatherDisplay:10.37,2013-05-12 21:16:00,
2013-05-12 17:21:00,38.3,3.7,28.50,NNW,327,6.3,8.1,23,0.00,CLR,OVC,0.00,WeatherDisplay:10.37,2013-05-12 21:21:00,
2013-05-12 17:26:00,40.1,5.2,28.50,WNW,297,6.7,10.4,23,0.00,CLR,OVC,0.00,WeatherDisplay:10.37,2013-05-12 21:26:00,
2013-05-12 17:31:00,39.9,3.1,28.50,NW,314,7.6,11.5,21,0.00,CLR,OVC,0.00,WeatherDisplay:10.37,2013-05-12 21:31:00,
2013-05-12 17:36:00,38.7,2.0,28.50,WNW,286,7.6,9.2,21,0.00,CLR,OVC,0.00,WeatherDisplay:10.37,2013-05-12 21:36:00,
2013-05-12 17:41:00,38.5,1.9,28.50,West,259,6.3,9.2,21,0.00,CLR,OVC,0.00,WeatherDisplay:10.37,2013-05-12 21:41:00,
2013-05-12 17:46:00,38.5,1.9,28.50,NW,309,7.6,11.5,21,0.00,CLR,OVC,0.00,WeatherDisplay:10.37,2013-05-12 21:46:00,
2013-05-12 17:51:00,37.8,1.2,28.50,NW,321,6.3,10.4,21,0.00,CLR,OVC,0.00,WeatherDisplay:10.37,2013-05-12 21:51:00,
2013-05-12 17:56:00,39.7,2.9,28.50,NW,320,7.2,11.5,21,0.00,CLR,OVC,0.00,WeatherDisplay:10.37,2013-05-12 21:56:00,
2013-05-12 18:01:00,41.2,4.1,28.50,North,357,4.5,8.1,21,0.00,CLR,OVC,0.00,WeatherDisplay:10.37,2013-05-12 22:01:00,
2013-05-12 18:06:00,42.3,4.0,28.50,WNW,282,5.8,11.5,20,0.00,CLR,OVC,0.00,WeatherDisplay:10.37,2013-05-12 22:06:00,
2013-05-12 18:11:00,43.2,4.7,28.50,WNW,300,4.9,8.7,20,0.00,CLR,OVC,0.00,WeatherDisplay:10.37,2013-05-12 22:11:00,
2013-05-12 18:16:00,42.3,4.0,28.50,WNW,286,8.0,10.4,20,0.00,CLR,OVC,0.00,WeatherDisplay:10.37,2013-05-12 22:16:00,
2013-05-12 18:21:00,41.9,3.7,28.50,NW,321,6.3,8.1,20,0.00,CLR,OVC,0.00,WeatherDisplay:10.37,2013-05-12 22:21:00,
2013-05-12 18:26:00,41.9,3.7,28.50,WNW,299,5.4,8.3,20,0.00,CLR,OVC,0.00,WeatherDisplay:10.37,2013-05-12 22:26:00,
2013-05-12 18:31:00,40.1,3.2,28.50,WNW,303,8.3,10.5,21,0.00,CLR,OVC,0.00,WeatherDisplay:10.37,2013-05-12 22:31:00,
2013-05-12 18:36:00,38.8,2.2,28.50,NNW,340,5.4,8.1,21,0.00,CLR,OVC,0.00,WeatherDisplay:10.37,2013-05-12 22:36:00,
2013-05-12 18:41:00,38.3,1.7,28.50,North,2,4.9,10.4,21,0.00,CLR,OVC,0.00,WeatherDisplay:10.37,2013-05-12 22:41:00,
2013-05-12 18:46:00,38.1,1.6,28.50,West,268,4.0,5.8,21,0.00,CLR,OVC,0.00,WeatherDisplay:10.37,2013-05-12 22:46:00,
2013-05-12 18:51:00,38.3,1.7,28.50,NNW,342,5.4,10.4,21,0.00,CLR,OVC,0.00,WeatherDisplay:10.37,2013-05-12 22:51:00,
2013-05-12 18:56:00,38.5,1.9,28.50,North,349,4.0,9.2,21,0.00,CLR,OVC,0.00,WeatherDisplay:10.37,2013-05-12 22:56:00,
2013-05-12 19:01:00,38.5,1.9,28.50,WNW,299,4.5,7.2,21,0.00,CLR,OVC,0.00,WeatherDisplay:10.37,2013-05-12 23:01:00,
2013-05-12 19:06:00,37.8,1.2,28.50,WNW,297,9.2,15.0,21,0.00,CLR,OVC,0.00,WeatherDisplay:10.37,2013-05-12 23:06:00,
2013-05-12 19:11:00,37.2,0.8,28.50,NNW,331,4.9,5.8,21,0.00,CLR,OVC,0.00,WeatherDisplay:10.37,2013-05-12 23:11:00,
2013-05-12 19:16:00,37.2,0.8,28.50,NW,309,4.0,10.4,21,0.00,CLR,OVC,0.00,WeatherDisplay:10.37,2013-05-12 23:16:00,
2013-05-12 19:21:00,37.4,0.9,28.50,WNW,298,4.5,8.1,21,0.00,CLR,OVC,0.00,WeatherDisplay:10.37,2013-05-12 23:21:00,
2013-05-12 19:26:00,37.2,0.8,28.50,NW,325,5.4,12.7,21,0.00,CLR,OVC,0.00,WeatherDisplay:10.37,2013-05-12 23:26:00,
2013-05-12 19:31:00,37.4,0.9,28.50,NW,326,5.8,8.1,21,0.00,CLR,OVC,0.00,WeatherDisplay:10.37,2013-05-12 23:31:00,
2013-05-12 19:36:00,37.6,1.1,28.50,NW,306,7.6,8.1,21,0.00,CLR,OVC,0.00,WeatherDisplay:10.37,2013-05-12 23:36:00,
2013-05-12 19:41:00,37.8,1.2,28.50,WNW,294,5.8,15.0,21,0.00,CLR,OVC,0.00,WeatherDisplay:10.37,2013-05-12 23:41:00,
2013-05-12 19:46:00,37.4,0.9,28.50,North,357,8.0,10.4,21,0.00,CLR,OVC,0.00,WeatherDisplay:10.37,2013-05-12 23:46:00,
2013-05-12 19:51:00,37.0,0.6,28.50,NW,316,4.5,5.8,21,0.00,CLR,OVC,0.00,WeatherDisplay:10.37,2013-05-12 23:51:00,
2013-05-12 19:56:00,36.7,0.3,28.50,North,9,4.5,9.2,21,0.00,CLR,OVC,0.00,WeatherDisplay:10.37,2013-05-12 23:56:00,
2013-05-12 20:01:00,36.5,0.2,28.50,NNW,339,4.5,5.8,21,0.00,CLR,OVC,0.00,WeatherDisplay:10.37,2013-05-13 00:01:00,
2013-05-12 20:06:00,36.5,0.2,28.50,NW,321,3.1,6.9,21,0.00,CLR,OVC,0.00,WeatherDisplay:10.37,2013-05-13 00:06:00,
2013-05-12 20:11:00,36.3,1.0,28.50,WNW,295,5.8,15.0,22,0.00,CLR,OVC,0.00,WeatherDisplay:10.37,2013-05-13 00:11:00,
2013-05-12 20:16:00,36.1,0.9,28.50,WNW,301,6.7,6.7,22,0.00,CLR,OVC,0.00,WeatherDisplay:10.37,2013-05-13 00:16:00,
2013-05-12 20:21:00,36.0,0.7,28.50,WNW,299,8.7,11.5,22,0.00,CLR,OVC,0.00,WeatherDisplay:10.37,2013-05-13 00:21:00,
2013-05-12 20:26:00,36.0,0.7,28.50,West,276,4.0,6.3,22,0.00,CLR,OVC,0.00,WeatherDisplay:10.37,2013-05-13 00:26:00,
2013-05-12 20:31:00,35.8,0.6,28.50,North,350,4.0,5.8,22,0.00,CLR,OVC,0.00,WeatherDisplay:10.37,2013-05-13 00:31:00,
2013-05-12 20:36:00,35.4,0.3,28.50,NNW,341,3.1,3.5,22,0.00,CLR,OVC,0.00,WeatherDisplay:10.37,2013-05-13 00:36:00,
2013-05-12 20:41:00,35.2,0.1,28.50,NNW,338,3.1,3.5,22,0.00,CLR,OVC,0.00,WeatherDisplay:10.37,2013-05-13 00:41:00,
2013-05-12 20:46:00,35.1,0.0,28.50,NNW,328,3.1,4.6,22,0.00,CLR,OVC,0.00,WeatherDisplay:10.37,2013-05-13 00:46:00,
2013-05-12 20:51:00,34.9,-0.2,28.50,NW,324,4.0,5.8,22,0.00,CLR,OVC,0.00,WeatherDisplay:10.37,2013-05-13 00:51:00,
2013-05-12 20:56:00,34.7,-0.3,28.50,NW,310,2.2,3.5,22,0.00,CLR,OVC,0.00,WeatherDisplay:10.37,2013-05-13 00:56:00,
2013-05-12 21:01:00,34.5,-0.5,28.50,WNW,299,4.5,5.8,22,0.00,CLR,OVC,0.00,WeatherDisplay:10.37,2013-05-13 01:01:00,
2013-05-12 21:06:00,34.2,-0.8,28.50,NNE,15,2.7,5.8,22,0.00,CLR,OVC,0.00,WeatherDisplay:10.37,2013-05-13 01:06:00,
2013-05-12 21:11:00,34.0,-1.0,28.50,SW,236,4.5,5.8,22,0.00,CLR,OVC,0.00,WeatherDisplay:10.37,2013-05-13 01:11:00,
2013-05-12 21:16:00,33.8,-1.1,28.50,NNW,341,4.5,5.8,22,0.00,CLR,OVC,0.00,WeatherDisplay:10.37,2013-05-13 01:16:00,
2013-05-12 21:21:00,33.6,-1.3,28.50,NW,309,3.6,4.6,22,0.00,CLR,OVC,0.00,WeatherDisplay:10.37,2013-05-13 01:21:00,
2013-05-12 21:26:00,33.4,-1.4,28.50,NNW,335,2.7,3.5,22,0.00,CLR,OVC,0.00,WeatherDisplay:10.37,2013-05-13 01:26:00,
2013-05-12 21:31:00,33.1,-1.7,28.50,NW,319,3.6,5.8,22,0.00,CLR,OVC,0.00,WeatherDisplay:10.37,2013-05-13 01:31:00,
2013-05-12 21:36:00,32.7,-1.1,28.50,NW,322,0.0,2.3,23,0.00,CLR,OVC,0.00,WeatherDisplay:10.37,2013-05-13 01:36:00,
2013-05-12 21:41:00,31.8,-1.8,28.50,NW,320,0.0,0.0,23,0.00,CLR,OVC,0.00,WeatherDisplay:10.37,2013-05-13 01:41:00,
2013-05-12 21:46:00,30.6,-2.9,28.50,WNW,303,0.0,2.3,23,0.00,CLR,OVC,0.00,WeatherDisplay:10.37,2013-05-13 01:46:00,
2013-05-12 21:51:00,29.3,-4.0,28.50,NW,313,0.0,3.6,23,0.00,CLR,OVC,0.00,WeatherDisplay:10.37,2013-05-13 01:51:00,
2013-05-12 21:56:00,28.4,-4.8,28.50,NW,317,0.0,0.0,23,0.00,CLR,OVC,0.00,WeatherDisplay:10.37,2013-05-13 01:56:00,
2013-05-12 22:01:00,27.5,-5.5,28.50,NW,318,0.0,0.0,23,0.00,CLR,OVC,0.00,WeatherDisplay:10.37,2013-05-13 02:01:00,
2013-05-12 22:06:00,26.8,-3.6,28.50,WNW,292,0.0,0.0,26,0.00,CLR,OVC,0.00,WeatherDisplay:10.37,2013-05-13 02:06:00,
2013-05-12 22:11:00,26.2,-4.1,28.50,WNW,292,0.0,0.0,26,0.00,CLR,OVC,0.00,WeatherDisplay:10.37,2013-05-13 02:11:00,
2013-05-12 22:16:00,26.1,-0.5,28.50,West,276,0.0,2.7,31,0.00,CLR,OVC,0.00,WeatherDisplay:10.37,2013-05-13 02:16:00,
2013-05-12 22:21:00,25.9,-0.7,28.50,West,276,0.0,0.0,31,0.00,CLR,OVC,0.00,WeatherDisplay:10.37,2013-05-13 02:21:00,
2013-05-12 22:26:00,25.7,-0.8,28.50,West,276,0.0,0.0,31,0.00,CLR,OVC,0.00,WeatherDisplay:10.37,2013-05-13 02:26:00,
2013-05-12 22:31:00,25.2,-1.3,28.50,West,275,0.0,0.0,31,0.00,CLR,OVC,0.00,WeatherDisplay:10.37,2013-05-13 02:31:00,
2013-05-12 22:36:00,24.6,-1.1,28.53,West,275,0.0,0.0,32,0.00,CLR,OVC,0.00,WeatherDisplay:10.37,2013-05-13 02:36:00,
2013-05-12 22:41:00,24.1,-1.6,28.53,West,275,0.0,0.0,32,0.00,CLR,OVC,0.00,WeatherDisplay:10.37,2013-05-13 02:41:00,
2013-05-12 22:46:00,23.7,-1.9,28.53,West,275,0.0,0.0,32,0.00,CLR,OVC,0.00,WeatherDisplay:10.37,2013-05-13 02:46:00,
2013-05-12 22:51:00,23.9,-1.1,28.53,West,275,0.0,0.0,33,0.00,CLR,OVC,0.00,WeatherDisplay:10.37,2013-05-13 02:51:00,
2013-05-12 22:56:00,23.9,-0.4,28.53,West,275,0.0,0.0,34,0.00,CLR,OVC,0.00,WeatherDisplay:10.37,2013-05-13 02:56:00,
2013-05-12 23:01:00,23.9,0.2,28.53,West,275,0.0,0.0,35,0.00,CLR,OVC,0.00,WeatherDisplay:10.37,2013-05-13 03:01:00,
2013-05-12 23:06:00,23.7,0.0,28.53,West,275,0.0,0.0,35,0.00,CLR,OVC,0.00,WeatherDisplay:10.37,2013-05-13 03:06:00,
2013-05-12 23:11:00,23.5,0.5,28.53,NW,305,2.2,3.5,36,0.00,CLR,OVC,0.00,WeatherDisplay:10.37,2013-05-13 03:11:00,
2013-05-12 23:16:00,23.9,4.1,28.53,NW,325,0.0,3.5,42,0.00,CLR,OVC,0.00,WeatherDisplay:10.37,2013-05-13 03:16:00,
2013-05-12 23:21:00,24.3,4.4,28.53,NNW,330,0.0,2.3,42,0.00,CLR,OVC,0.00,WeatherDisplay:10.37,2013-05-13 03:21:00,
2013-05-12 23:26:00,23.9,4.1,28.53,WNW,301,0.0,3.5,42,0.00,CLR,OVC,0.00,WeatherDisplay:10.37,2013-05-13 03:26:00,
2013-05-12 23:31:00,24.1,4.8,28.53,WNW,302,0.0,0.0,43,0.00,CLR,OVC,0.00,WeatherDisplay:10.37,2013-05-13 03:31:00,
2013-05-12 23:36:00,24.8,5.4,28.53,WNW,302,0.0,0.0,43,0.00,CLR,OVC,0.00,WeatherDisplay:10.37,2013-05-13 03:36:00,
2013-05-12 23:41:00,24.8,5.4,28.53,NW,317,0.0,3.5,43,0.00,CLR,OVC,0.00,WeatherDisplay:10.37,2013-05-13 03:41:00,
2013-05-12 23:46:00,24.6,4.8,28.53,NW,312,2.2,3.5,42,0.00,CLR,OVC,0.00,WeatherDisplay:10.37,2013-05-13 03:46:00,
2013-05-12 23:51:00,24.4,4.6,28.53,NW,312,0.0,0.0,42,0.00,CLR,OVC,0.00,WeatherDisplay:10.37,2013-05-13 03:51:00,
2013-05-12 23:56:00,24.4,4.6,28.53,NNW,336,0.0,0.0,42,0.00,CLR,OVC,0.00,WeatherDisplay:10.37,2013-05-13 03:56:00,